createdAt,value
2023-04-19T00:01:11.404Z,9.99
2023-04-19T00:03:38.453Z,9.95
2023-04-19T00:06:08.362Z,10.02
2023-04-19T00:08:34.997Z,10.07
2023-04-19T00:11:01.700Z,10.07
2023-04-19T00:13:28.667Z,10.12
2023-04-19T00:15:58.551Z,10.11
2023-04-19T00:18:25.329Z,10.21
2023-04-19T00:20:52.217Z,10.22
2023-04-19T00:23:18.946Z,10.17
2023-04-19T00:25:52.069Z,10.25
2023-04-19T00:28:21.023Z,10.31
2023-04-19T00:30:50.106Z,10.33
2023-04-19T00:33:16.730Z,10.37
2023-04-19T00:35:43.495Z,10.38
2023-04-19T00:38:12.902Z,10.34
2023-04-19T00:40:39.719Z,10.38
2023-04-19T00:43:06.619Z,10.38
2023-04-19T00:45:37.062Z,10.41
2023-04-19T00:48:06.801Z,10.42
2023-04-19T00:50:33.720Z,10.40
2023-04-19T00:53:02.911Z,10.42
2023-04-19T00:55:29.829Z,10.37
2023-04-19T00:57:57.471Z,10.44
2023-04-19T01:00:24.156Z,10.46
2023-04-19T01:02:53.761Z,10.52
2023-04-19T01:05:20.715Z,10.49
2023-04-19T01:07:49.709Z,10.43
2023-04-19T01:10:16.764Z,10.49
2023-04-19T01:12:43.408Z,10.50
2023-04-19T01:15:10.865Z,10.44
2023-04-19T01:17:39.950Z,10.51
2023-04-19T01:20:08.286Z,10.49
2023-04-19T01:22:37.812Z,10.52
2023-04-19T01:25:05.336Z,10.54
2023-04-19T01:27:32.054Z,10.54
2023-04-19T01:29:59.035Z,10.54
2023-04-19T01:32:28.443Z,10.54
2023-04-19T01:34:55.267Z,10.54
2023-04-19T01:37:24.385Z,10.53
2023-04-19T01:39:51.168Z,10.56
2023-04-19T01:42:17.955Z,10.58
2023-04-19T01:44:47.017Z,10.56
2023-04-19T01:47:13.857Z,10.57
2023-04-19T01:49:40.941Z,10.60
2023-04-19T01:52:10.255Z,10.55
2023-04-19T01:54:37.030Z,10.64
2023-04-19T01:57:06.078Z,10.67
2023-04-19T01:59:32.871Z,10.60
2023-04-19T02:01:59.886Z,10.67
2023-04-19T02:04:26.763Z,10.66
2023-04-19T02:06:53.441Z,10.66
2023-04-19T02:09:20.186Z,10.69
2023-04-19T02:11:46.853Z,10.69
2023-04-19T02:14:13.834Z,10.67
2023-04-19T02:16:40.873Z,10.66
2023-04-19T02:19:07.684Z,10.61
2023-04-19T02:21:34.475Z,10.59
2023-04-19T02:24:03.938Z,10.53
2023-04-19T02:26:30.729Z,10.49
2023-04-19T02:28:57.525Z,10.47
2023-04-19T02:31:24.301Z,10.46
2023-04-19T02:33:51.265Z,10.41
2023-04-19T02:36:17.936Z,10.38
2023-04-19T02:38:44.679Z,10.31
2023-04-19T02:41:11.552Z,10.24
2023-04-19T02:43:38.199Z,10.24
2023-04-19T02:46:04.911Z,10.20
2023-04-19T02:48:31.759Z,10.18
2023-04-19T02:50:58.755Z,10.19
2023-04-19T02:53:25.745Z,10.14
2023-04-19T02:55:52.513Z,10.23
2023-04-19T02:58:19.215Z,10.24
2023-04-19T03:00:48.309Z,10.25
2023-04-19T03:03:17.538Z,10.19
2023-04-19T03:05:44.296Z,10.20
2023-04-19T03:08:13.389Z,10.16
2023-04-19T03:10:40.249Z,10.23
2023-04-19T03:13:06.870Z,10.25
2023-04-19T03:15:34.004Z,10.19
2023-04-19T03:18:00.876Z,10.25
2023-04-19T03:20:27.603Z,10.28
2023-04-19T03:22:54.547Z,10.30
2023-04-19T03:25:21.515Z,10.30
2023-04-19T03:27:48.326Z,10.25
2023-04-19T03:30:15.402Z,10.27
2023-04-19T03:32:44.407Z,10.28
2023-04-19T03:35:11.259Z,10.30
2023-04-19T03:37:38.085Z,10.24
2023-04-19T03:40:07.347Z,10.30
2023-04-19T03:42:34.190Z,10.25
2023-04-19T03:45:01.006Z,10.26
2023-04-19T03:47:27.961Z,10.31
2023-04-19T03:49:54.680Z,10.25
2023-04-19T03:52:21.481Z,10.20
2023-04-19T03:54:50.374Z,10.28
2023-04-19T03:57:17.803Z,10.25
2023-04-19T03:59:44.626Z,10.25
2023-04-19T04:02:11.567Z,10.11
2023-04-19T04:04:41.050Z,10.14
2023-04-19T04:07:10.751Z,10.12
2023-04-19T04:09:37.467Z,10.17
2023-04-19T04:12:06.636Z,10.11
2023-04-19T04:14:33.320Z,10.12
2023-04-19T04:17:00.001Z,10.09
2023-04-19T04:19:27.096Z,10.00
2023-04-19T04:21:54.072Z,9.99
2023-04-19T04:24:22.358Z,9.95
2023-04-19T04:26:50.067Z,9.78
2023-04-19T04:29:19.948Z,8.95
2023-04-19T04:31:46.699Z,9.66
2023-04-19T04:34:14.395Z,9.67
2023-04-19T04:36:41.706Z,9.56
2023-04-19T04:39:12.487Z,9.55
2023-04-19T04:41:42.260Z,9.34
2023-04-19T04:44:12.963Z,9.43
2023-04-19T04:46:40.255Z,9.38
2023-04-19T04:49:07.499Z,9.40
2023-04-19T04:51:35.574Z,9.30
2023-04-19T04:54:05.486Z,9.31
2023-04-19T04:56:32.696Z,9.33
2023-04-19T04:58:59.644Z,9.26
2023-04-19T05:01:26.303Z,9.46
2023-04-19T05:03:53.236Z,9.50
2023-04-19T05:06:22.439Z,9.62
2023-04-19T05:08:51.525Z,9.70
2023-04-19T05:11:20.955Z,9.75
2023-04-19T05:13:48.090Z,9.65
2023-04-19T05:16:15.332Z,9.81
2023-04-19T05:18:42.334Z,10.52
2023-04-19T05:21:12.034Z,11.51
2023-04-19T05:23:39.131Z,12.13
2023-04-19T05:26:06.407Z,12.58
2023-04-19T05:28:35.651Z,13.33
2023-04-19T05:31:02.429Z,13.54
2023-04-19T05:33:29.269Z,12.86
2023-04-19T05:35:56.301Z,11.88
2023-04-19T05:38:23.292Z,12.12
2023-04-19T05:40:52.853Z,12.61
2023-04-19T05:43:19.767Z,12.90
2023-04-19T05:45:46.721Z,12.21
2023-04-19T05:48:16.091Z,11.69
2023-04-19T05:50:45.116Z,12.16
2023-04-19T05:53:13.313Z,13.91
2023-04-19T05:55:40.360Z,13.49
2023-04-19T05:58:07.671Z,13.80
2023-04-19T06:00:38.225Z,14.11
2023-04-19T06:03:08.056Z,15.07
2023-04-19T06:05:35.207Z,15.87
2023-04-19T06:08:05.187Z,16.18
2023-04-19T06:10:47.914Z,16.61
2023-04-19T06:13:21.072Z,16.99
2023-04-19T06:15:48.112Z,17.04
2023-04-19T06:18:19.223Z,16.79
2023-04-19T06:20:46.830Z,16.98
2023-04-19T06:23:18.733Z,17.14
2023-04-19T06:25:49.104Z,17.31
2023-04-19T06:28:16.285Z,17.73
2023-04-19T06:30:43.349Z,17.68
2023-04-19T06:33:10.102Z,17.71
2023-04-19T06:35:36.925Z,17.33
2023-04-19T06:38:06.536Z,17.84
2023-04-19T06:40:38.998Z,18.16
2023-04-19T06:43:06.078Z,18.23
2023-04-19T06:45:33.526Z,18.34
2023-04-19T06:48:02.623Z,18.47
2023-04-19T06:50:32.535Z,18.15
2023-04-19T06:53:04.084Z,19.00
2023-04-19T06:55:31.874Z,19.03
2023-04-19T06:57:59.019Z,19.41
2023-04-19T07:00:26.624Z,19.95
2023-04-19T07:02:53.671Z,19.61
2023-04-19T07:05:20.677Z,19.35
2023-04-19T07:07:50.106Z,19.57
2023-04-19T07:10:17.688Z,19.60
2023-04-19T07:12:45.828Z,19.15
2023-04-19T07:15:15.287Z,19.85
2023-04-19T07:17:47.595Z,20.56
2023-04-19T07:20:14.464Z,20.69
2023-04-19T07:22:41.863Z,20.61
2023-04-19T07:25:09.358Z,20.50
2023-04-19T07:27:36.239Z,20.90
2023-04-19T07:30:03.106Z,20.73
2023-04-19T07:32:31.875Z,20.89
2023-04-19T07:34:58.930Z,20.72
2023-04-19T07:37:25.873Z,20.84
2023-04-19T07:39:52.709Z,21.02
2023-04-19T07:42:19.761Z,21.47
2023-04-19T07:44:46.480Z,20.69
2023-04-19T07:47:13.388Z,20.76
2023-04-19T07:49:44.502Z,20.72
2023-04-19T07:52:12.227Z,20.21
2023-04-19T07:54:44.404Z,20.55
2023-04-19T07:57:11.080Z,20.31
2023-04-19T07:59:37.822Z,20.27
2023-04-19T08:02:04.650Z,20.27
2023-04-19T08:04:31.794Z,19.76
2023-04-19T08:06:59.487Z,19.86
2023-04-19T08:09:26.346Z,20.15
2023-04-19T08:11:57.830Z,20.49
2023-04-19T08:14:37.629Z,19.96
2023-04-19T08:17:24.614Z,20.58
2023-04-19T08:19:53.214Z,20.49
2023-04-19T08:22:21.783Z,20.83
2023-04-19T08:24:52.466Z,21.16
2023-04-19T08:27:19.682Z,20.86
2023-04-19T08:29:46.991Z,20.14
2023-04-19T08:32:13.941Z,20.33
2023-04-19T08:34:40.928Z,20.28
2023-04-19T08:37:10.051Z,20.02
2023-04-19T08:39:36.939Z,19.86
2023-04-19T08:42:10.928Z,20.17
2023-04-19T08:44:49.221Z,20.24
2023-04-19T08:47:31.167Z,20.64
2023-04-19T08:50:24.063Z,19.89
2023-04-19T08:53:00.663Z,19.74
2023-04-19T08:55:35.795Z,19.15
2023-04-19T08:58:12.336Z,18.28
2023-04-19T09:00:45.820Z,18.48
2023-04-19T09:03:12.663Z,18.74
2023-04-19T09:05:39.865Z,18.95
2023-04-19T09:08:28.948Z,19.02
2023-04-19T09:10:58.178Z,18.15
2023-04-19T09:13:27.997Z,17.70
2023-04-19T09:15:58.053Z,17.59
2023-04-19T09:18:30.564Z,17.30
2023-04-19T09:20:58.324Z,17.26
2023-04-19T09:23:28.577Z,16.82
2023-04-19T09:28:34.187Z,17.05
2023-04-19T09:31:33.361Z,16.93
2023-04-19T09:34:14.656Z,16.59
2023-04-19T09:36:41.626Z,16.27
2023-04-19T09:39:08.543Z,16.37
2023-04-19T09:41:38.995Z,16.13
2023-04-19T09:46:46.500Z,15.31
2023-04-19T09:49:33.634Z,15.71
2023-04-19T09:52:10.263Z,15.63
2023-04-19T09:54:37.906Z,15.75
2023-04-19T09:57:07.438Z,15.59
2023-04-19T09:59:36.388Z,15.41
2023-04-19T10:02:05.157Z,15.13
2023-04-19T10:04:57.124Z,15.15
2023-04-19T10:07:30.099Z,15.10
2023-04-19T10:10:11.908Z,15.23
2023-04-19T10:13:15.444Z,15.24
2023-04-19T10:15:50.122Z,15.15
2023-04-19T10:18:18.332Z,15.15
2023-04-19T10:20:54.509Z,14.97
2023-04-19T10:23:23.790Z,14.84
2023-04-19T10:25:56.802Z,14.84
2023-04-19T10:28:23.682Z,14.56
2023-04-19T10:31:02.657Z,14.41
2023-04-19T10:33:32.326Z,14.51
2023-04-19T10:35:59.816Z,14.25
2023-04-19T10:38:40.235Z,14.47
2023-04-19T10:41:13.656Z,14.29
2023-04-19T10:44:11.767Z,14.52
2023-04-19T10:46:41.616Z,14.59
2023-04-19T10:49:13.706Z,14.72
2023-04-19T10:51:44.454Z,14.96
2023-04-19T10:54:31.606Z,15.22
2023-04-19T10:57:02.749Z,14.60
2023-04-19T10:59:32.777Z,14.99
2023-04-19T11:02:02.141Z,15.02
2023-04-19T11:04:32.283Z,15.19
2023-04-19T11:07:05.031Z,15.26
2023-04-19T11:09:36.025Z,15.39
2023-04-19T11:12:08.221Z,15.52
2023-04-19T11:14:36.988Z,15.65
2023-04-19T11:17:16.605Z,15.45
2023-04-19T11:19:45.219Z,15.15
2023-04-19T11:22:11.925Z,15.43
2023-04-19T11:24:38.532Z,15.32
2023-04-19T11:27:09.524Z,15.29
2023-04-19T11:29:36.175Z,15.21
2023-04-19T11:32:05.075Z,15.08
2023-04-19T11:34:37.183Z,15.26
2023-04-19T11:37:03.876Z,15.12
2023-04-19T11:39:32.965Z,14.98
2023-04-19T11:41:59.627Z,15.18
2023-04-19T11:44:26.337Z,15.34
2023-04-19T11:47:00.352Z,15.43
2023-04-19T11:49:31.225Z,15.42
2023-04-19T11:52:04.645Z,15.34
2023-04-19T11:54:32.070Z,15.26
2023-04-19T11:57:03.436Z,15.51
2023-04-19T11:59:32.458Z,15.58
2023-04-19T12:02:12.799Z,15.63
2023-04-19T12:04:42.252Z,15.71
2023-04-19T12:07:10.563Z,15.58
2023-04-19T12:09:38.665Z,15.49
2023-04-19T12:12:05.394Z,15.48
2023-04-19T12:14:32.374Z,15.46
2023-04-19T12:17:05.866Z,15.63
2023-04-19T12:19:37.445Z,15.71
2023-04-19T12:22:17.489Z,15.93
2023-04-19T12:24:44.126Z,15.75
2023-04-19T12:27:11.502Z,15.78
2023-04-19T12:29:39.227Z,15.89
2023-04-19T12:32:10.884Z,15.82
2023-04-19T12:34:37.557Z,15.90
2023-04-19T12:37:06.933Z,16.01
2023-04-19T12:39:33.709Z,16.13
2023-04-19T12:42:01.409Z,16.26
2023-04-19T12:44:30.650Z,16.36
2023-04-19T12:46:57.811Z,16.32
2023-04-19T12:49:24.707Z,16.22
2023-04-19T12:51:51.409Z,16.20
2023-04-19T12:54:18.078Z,16.22
2023-04-19T12:56:44.631Z,16.12
2023-04-19T12:59:13.633Z,16.04
2023-04-19T13:01:40.778Z,16.16
2023-04-19T13:04:11.630Z,16.31
2023-04-19T13:06:41.082Z,16.19
2023-04-19T13:09:14.159Z,16.14
2023-04-19T13:11:41.850Z,16.40
2023-04-19T13:14:11.432Z,16.52
2023-04-19T13:16:40.322Z,16.28
2023-04-19T13:19:11.726Z,16.45
2023-04-19T13:21:41.559Z,16.25
2023-04-19T13:24:08.430Z,16.10
2023-04-19T13:26:35.034Z,16.45
2023-04-19T13:29:01.708Z,16.20
2023-04-19T13:31:31.151Z,16.36
2023-04-19T13:34:00.744Z,16.39
2023-04-19T13:36:28.214Z,16.27
2023-04-19T13:38:57.390Z,16.54
2023-04-19T13:41:24.039Z,16.57
2023-04-19T13:43:50.573Z,16.34
2023-04-19T13:46:19.480Z,16.43
2023-04-19T13:48:49.541Z,16.41
2023-04-19T13:51:16.159Z,16.56
2023-04-19T13:53:42.736Z,16.47
2023-04-19T13:56:09.682Z,16.21
2023-04-19T13:58:37.440Z,16.39
2023-04-19T14:01:04.147Z,16.16
2023-04-19T14:03:31.714Z,16.08
2023-04-19T14:06:03.258Z,16.20
2023-04-19T14:08:29.788Z,16.07
2023-04-19T14:10:58.653Z,16.12
2023-04-19T14:13:25.246Z,16.04
2023-04-19T14:15:51.877Z,16.09
2023-04-19T14:18:18.437Z,15.94
2023-04-19T14:20:45.681Z,16.08
2023-04-19T14:23:14.654Z,15.96
2023-04-19T14:25:41.265Z,16.23
2023-04-19T14:28:07.893Z,16.42
2023-04-19T14:30:34.700Z,15.87
2023-04-19T14:33:03.966Z,16.27
2023-04-19T14:35:31.127Z,16.37
2023-04-19T14:37:57.758Z,16.14
2023-04-19T14:40:24.567Z,15.89
2023-04-19T14:42:53.624Z,16.18
2023-04-19T14:45:26.028Z,16.17
2023-04-19T14:47:52.712Z,16.09
2023-04-19T14:50:20.022Z,16.06
2023-04-19T14:52:48.816Z,16.08
2023-04-19T14:55:15.422Z,15.97
2023-04-19T14:57:42.033Z,15.93
2023-04-19T15:00:09.603Z,15.87
2023-04-19T15:02:37.474Z,15.84
2023-04-19T15:05:04.670Z,16.21
2023-04-19T15:07:31.555Z,16.48
2023-04-19T15:09:58.531Z,16.51
2023-04-19T15:12:27.530Z,16.22
2023-04-19T15:14:56.408Z,16.19
2023-04-19T15:17:23.083Z,16.09
2023-04-19T15:19:52.014Z,16.29
2023-04-19T15:22:18.822Z,16.07
2023-04-19T15:24:47.797Z,16.16
2023-04-19T15:27:16.861Z,16.09
2023-04-19T15:29:43.488Z,16.06
2023-04-19T15:32:12.204Z,16.02
2023-04-19T15:34:38.817Z,15.66
2023-04-19T15:37:08.786Z,15.85
2023-04-19T15:39:35.505Z,15.85
2023-04-19T15:42:03.169Z,15.81
2023-04-19T15:44:32.299Z,15.81
2023-04-19T15:46:58.995Z,15.75
2023-04-19T15:49:27.935Z,15.79
2023-04-19T15:51:57.163Z,15.84
2023-04-19T15:54:23.841Z,15.79
2023-04-19T15:56:52.698Z,15.79
2023-04-19T15:59:19.239Z,15.78
2023-04-19T16:01:46.893Z,15.73
2023-04-19T16:04:13.810Z,15.72
2023-04-19T16:06:40.828Z,15.59
2023-04-19T16:09:09.962Z,15.56
2023-04-19T16:11:36.647Z,15.41
2023-04-19T16:14:03.244Z,15.41
2023-04-19T16:16:34.374Z,15.41
2023-04-19T16:19:03.689Z,15.39
2023-04-19T16:21:32.642Z,15.41
2023-04-19T16:24:01.486Z,15.40
2023-04-19T16:26:28.150Z,15.42
2023-04-19T16:28:57.129Z,15.33
2023-04-19T16:31:28.552Z,15.31
2023-04-19T16:33:55.347Z,15.26
2023-04-19T16:36:22.161Z,15.16
2023-04-19T16:38:51.358Z,15.22
2023-04-19T16:41:18.030Z,15.08
2023-04-19T16:43:44.841Z,15.17
2023-04-19T16:46:11.454Z,14.94
2023-04-19T16:48:40.724Z,15.17
2023-04-19T16:51:07.310Z,15.10
2023-04-19T16:53:36.136Z,15.07
2023-04-19T16:56:03.693Z,15.03
2023-04-19T16:58:32.421Z,14.94
2023-04-19T17:01:02.683Z,14.87
2023-04-19T17:03:32.332Z,14.61
2023-04-19T17:05:59.146Z,14.85
2023-04-19T17:08:26.626Z,14.85
2023-04-19T17:10:53.246Z,14.74
2023-04-19T17:13:22.906Z,14.80
2023-04-19T17:15:51.843Z,14.63
2023-04-19T17:18:18.635Z,14.76
2023-04-19T17:20:45.753Z,14.65
2023-04-19T17:23:12.426Z,14.66
2023-04-19T17:25:41.556Z,14.56
2023-04-19T17:28:10.429Z,14.55
2023-04-19T17:30:37.103Z,14.54
2023-04-19T17:33:06.349Z,14.48
2023-04-19T17:35:33.045Z,14.42
2023-04-19T17:38:01.833Z,14.47
2023-04-19T17:40:29.551Z,14.42
2023-04-19T17:42:56.513Z,14.37
2023-04-19T17:45:25.007Z,14.27
2023-04-19T17:47:55.747Z,14.21
2023-04-19T17:50:22.819Z,14.08
2023-04-19T17:52:49.471Z,14.11
2023-04-19T17:55:16.194Z,14.03
2023-04-19T17:57:46.079Z,13.94
2023-04-19T18:00:13.596Z,13.97
2023-04-19T18:02:40.854Z,13.91
2023-04-19T18:05:08.012Z,13.84
2023-04-19T18:07:37.485Z,13.80
2023-04-19T18:10:04.445Z,13.75
2023-04-19T18:12:31.102Z,13.69
2023-04-19T18:14:59.901Z,13.60
2023-04-19T18:17:26.637Z,13.56
2023-04-19T18:19:53.476Z,13.48
2023-04-19T18:22:20.030Z,13.47
2023-04-19T18:24:47.390Z,13.40
2023-04-19T18:27:17.354Z,13.34
2023-04-19T18:29:44.061Z,13.19
2023-04-19T18:32:10.831Z,13.12
2023-04-19T18:34:42.562Z,13.06
2023-04-19T18:37:15.404Z,13.01
2023-04-19T18:39:42.572Z,12.99
2023-04-19T18:42:11.676Z,12.92
2023-04-19T18:44:53.566Z,12.85
2023-04-19T18:47:21.315Z,12.80
2023-04-19T18:50:03.735Z,12.76
2023-04-19T18:52:31.717Z,12.38
2023-04-19T18:54:58.494Z,12.90
2023-04-19T18:57:27.621Z,12.69
2023-04-19T18:59:56.898Z,12.51
2023-04-19T19:02:23.663Z,12.53
2023-04-19T19:04:58.510Z,12.46
2023-04-19T19:07:36.161Z,12.37
2023-04-19T19:10:16.910Z,12.24
2023-04-19T19:12:47.521Z,12.22
2023-04-19T19:15:14.726Z,12.17
2023-04-19T19:17:41.441Z,12.05
2023-04-19T19:20:13.392Z,11.90
2023-04-19T19:22:40.362Z,11.92
2023-04-19T19:25:07.342Z,11.83
2023-04-19T19:27:35.324Z,11.75
2023-04-19T19:30:03.530Z,11.73
2023-04-19T19:32:32.485Z,11.65
2023-04-19T19:35:02.401Z,11.62
2023-04-19T19:37:30.528Z,11.58
2023-04-19T19:39:57.103Z,11.57
2023-04-19T19:42:26.594Z,11.61
2023-04-19T19:44:55.110Z,11.49
2023-04-19T19:47:24.040Z,11.46
2023-04-19T19:50:33.581Z,11.26
2023-04-19T19:52:37.575Z,11.29
2023-04-19T19:55:04.514Z,11.26
2023-04-19T20:00:17.936Z,11.16
2023-04-19T20:05:21.781Z,11.06
2023-04-19T20:10:19.778Z,10.98
2023-04-19T20:12:47.325Z,10.57
2023-04-19T20:15:14.106Z,10.90
2023-04-19T20:17:41.490Z,10.85
2023-04-19T20:20:09.110Z,10.82
2023-04-19T20:22:35.847Z,10.73
2023-04-19T20:25:03.735Z,10.70
2023-04-19T20:27:30.840Z,10.96
2023-04-19T20:29:57.552Z,10.64
2023-04-19T20:32:24.850Z,10.70
2023-04-19T20:34:52.169Z,10.25
2023-04-19T20:37:19.179Z,10.60
2023-04-19T20:39:47.959Z,10.53
2023-04-19T20:42:14.863Z,10.38
2023-04-19T20:44:44.574Z,10.37
2023-04-19T20:47:13.396Z,10.31
2023-04-19T20:49:40.310Z,10.30
2023-04-19T20:52:07.511Z,10.16
2023-04-19T20:54:36.647Z,10.23
2023-04-19T20:57:04.824Z,10.17
2023-04-19T20:59:31.659Z,9.92
2023-04-19T21:01:59.737Z,9.56
2023-04-19T21:04:31.726Z,9.97
2023-04-19T21:07:00.425Z,9.91
2023-04-19T21:09:30.359Z,10.03
2023-04-19T21:11:58.573Z,9.76
2023-04-19T21:14:25.393Z,9.92
2023-04-19T21:16:52.102Z,9.88
2023-04-19T21:19:19.039Z,9.79
2023-04-19T21:21:46.368Z,9.77
2023-04-19T21:24:13.452Z,9.62
2023-04-19T21:26:40.357Z,9.69
2023-04-19T21:29:07.255Z,9.62
2023-04-19T21:31:36.393Z,9.63
2023-04-19T21:34:06.241Z,9.56
2023-04-19T21:36:35.631Z,9.51
2023-04-19T21:39:02.723Z,9.45
2023-04-19T21:41:32.728Z,9.39
2023-04-19T21:43:59.903Z,9.39
2023-04-19T21:46:27.066Z,9.38
2023-04-19T21:48:56.302Z,9.36
2023-04-19T21:51:23.239Z,9.30
2023-04-19T21:53:50.977Z,9.26
2023-04-19T21:56:18.756Z,9.25
2023-04-19T21:58:45.627Z,9.07
2023-04-19T22:01:12.704Z,8.67
2023-04-19T22:03:39.883Z,8.49
2023-04-19T22:06:14.069Z,8.94
2023-04-19T22:08:41.907Z,9.02
2023-04-19T22:11:12.090Z,9.04
2023-04-19T22:13:38.983Z,9.02
2023-04-19T22:16:08.690Z,8.80
2023-04-19T22:18:41.484Z,8.72
2023-04-19T22:21:11.179Z,8.99
2023-04-19T22:23:38.248Z,8.98
2023-04-19T22:26:07.385Z,8.82
2023-04-19T22:28:36.055Z,8.85
2023-04-19T22:31:07.672Z,8.65
2023-04-19T22:33:40.295Z,8.88
2023-04-19T22:36:10.260Z,8.66
2023-04-19T22:38:41.999Z,8.70
2023-04-19T22:41:09.160Z,8.53
2023-04-19T22:43:36.044Z,8.69
2023-04-19T22:46:02.788Z,8.56
2023-04-19T22:48:30.265Z,8.44
2023-04-19T22:50:57.033Z,8.51
2023-04-19T22:53:24.034Z,8.43
2023-04-19T22:55:53.349Z,8.48
2023-04-19T22:58:20.191Z,8.35
2023-04-19T23:00:47.380Z,8.33
2023-04-19T23:03:16.813Z,8.25
2023-04-19T23:05:44.481Z,8.18
2023-04-19T23:08:12.958Z,8.13
2023-04-19T23:10:42.412Z,8.19
2023-04-19T23:13:10.618Z,8.09
2023-04-19T23:15:39.394Z,8.00
2023-04-19T23:18:08.539Z,8.04
2023-04-19T23:20:35.907Z,7.65
2023-04-19T23:23:05.389Z,7.79
2023-04-19T23:25:32.253Z,7.81
2023-04-19T23:27:58.927Z,7.87
2023-04-19T23:30:29.599Z,7.78
2023-04-19T23:32:56.510Z,7.87
2023-04-19T23:35:23.498Z,7.86
2023-04-19T23:37:50.669Z,7.74
2023-04-19T23:40:20.710Z,7.69
2023-04-19T23:42:47.572Z,7.71
2023-04-19T23:45:14.357Z,7.72
2023-04-19T23:47:41.389Z,7.73
2023-04-19T23:50:11.136Z,7.62
2023-04-19T23:52:40.137Z,7.22
2023-04-19T23:55:07.226Z,7.51
2023-04-19T23:57:35.973Z,7.59
